createdAt,value
2017-08-05T00:00:46.137Z,1009.97
2017-08-05T00:01:56.082Z,1009.94
2017-08-05T00:03:06.310Z,1009.9
2017-08-05T00:04:16.556Z,1009.8
2017-08-05T00:05:26.634Z,1009.73
2017-08-05T00:06:35.948Z,1009.69
2017-08-05T00:07:46.188Z,1009.71
2017-08-05T00:08:56.113Z,1009.7
2017-08-05T00:10:06.339Z,1009.66
2017-08-05T00:11:16.255Z,1009.63
2017-08-05T00:12:26.483Z,1009.65
2017-08-05T00:13:36.419Z,1009.6
2017-08-05T00:14:46.349Z,1009.59
2017-08-05T00:15:56.279Z,1009.64
2017-08-05T00:17:06.213Z,1009.67
2017-08-05T00:18:16.443Z,1009.71
2017-08-05T00:19:26.672Z,1009.72
2017-08-05T00:20:36.283Z,1009.73
2017-08-05T00:21:46.522Z,1009.71
2017-08-05T00:22:56.752Z,1009.72
2017-08-05T00:24:06.664Z,1009.68
2017-08-05T00:25:16.282Z,1009.7
2017-08-05T00:26:26.208Z,1009.69
2017-08-05T00:27:36.441Z,1009.68
2017-08-05T00:28:46.373Z,1009.71
2017-08-05T00:29:56.309Z,1009.7
2017-08-05T00:31:06.556Z,1009.7
2017-08-05T00:32:16.784Z,1009.7
2017-08-05T00:33:26.704Z,1009.74
2017-08-05T00:34:36.641Z,1009.73
2017-08-05T00:35:46.559Z,1009.73
2017-08-05T00:36:56.477Z,1009.71
2017-08-05T00:38:06.396Z,1009.73
2017-08-05T00:39:16.626Z,1009.75
2017-08-05T00:40:26.851Z,1009.76
2017-08-05T00:41:37.083Z,1009.77
2017-08-05T00:42:47.011Z,1009.76
2017-08-05T00:43:56.646Z,1009.76
2017-08-05T00:45:06.568Z,1009.75
2017-08-05T00:46:16.801Z,1009.73
2017-08-05T00:47:27.034Z,1009.73
2017-08-05T00:48:36.950Z,1009.7
2017-08-05T00:49:46.891Z,1009.67
2017-08-05T00:50:57.132Z,1009.66
2017-08-05T00:52:07.061Z,1009.67
2017-08-05T00:53:16.677Z,1009.7
2017-08-05T00:54:26.940Z,1009.64
2017-08-05T00:55:36.250Z,1009.66
2017-08-05T00:56:46.495Z,1009.67
2017-08-05T00:57:56.111Z,1009.64
2017-08-05T00:59:06.342Z,1009.69
2017-08-05T01:00:16.317Z,1009.65
2017-08-05T01:01:26.571Z,1009.68
2017-08-05T01:02:36.522Z,1009.69
2017-08-05T01:03:46.767Z,1009.71
2017-08-05T01:04:56.999Z,1009.79
2017-08-05T01:06:06.632Z,1009.77
2017-08-05T01:07:16.248Z,1009.74
2017-08-05T01:08:26.169Z,1009.77
2017-08-05T01:09:35.798Z,1009.77
2017-08-05T01:10:45.104Z,1009.84
2017-08-05T01:11:55.036Z,1009.82
2017-08-05T01:13:04.657Z,1009.82
2017-08-05T01:14:14.574Z,1009.79
2017-08-05T01:15:24.499Z,1009.84
2017-08-05T01:16:34.417Z,1009.8
2017-08-05T01:17:44.033Z,1009.77
2017-08-05T01:18:53.645Z,1009.81
2017-08-05T01:20:03.570Z,1009.8
2017-08-05T01:21:13.809Z,1009.82
2017-08-05T01:22:23.735Z,1009.78
2017-08-05T01:23:33.345Z,1009.75
2017-08-05T01:24:43.568Z,1009.75
2017-08-05T01:25:53.241Z,1009.81
2017-08-05T01:27:02.546Z,1009.76
2017-08-05T01:28:12.782Z,1009.75
2017-08-05T01:29:22.702Z,1009.71
2017-08-05T01:30:32.944Z,1009.73
2017-08-05T01:31:42.868Z,1009.7
2017-08-05T01:32:53.112Z,1009.65
2017-08-05T01:34:03.359Z,1009.53
2017-08-05T01:35:13.584Z,1009.47
2017-08-05T01:36:23.831Z,1009.5
2017-08-05T01:37:34.060Z,1009.52
2017-08-05T01:38:44.289Z,1009.55
2017-08-05T01:39:54.205Z,1009.59
2017-08-05T01:41:04.134Z,1009.62
2017-08-05T01:42:14.369Z,1009.63
2017-08-05T01:43:23.677Z,1009.71
2017-08-05T01:44:33.904Z,1009.71
2017-08-05T01:45:43.829Z,1009.69
2017-08-05T01:46:54.064Z,1009.72
2017-08-05T01:48:04.286Z,1009.67
2017-08-05T01:49:13.898Z,1009.72
2017-08-05T01:50:23.821Z,1009.73
2017-08-05T01:51:34.050Z,1009.72
2017-08-05T01:52:43.992Z,1009.74
2017-08-05T01:53:53.904Z,1009.7
2017-08-05T01:55:03.212Z,1009.7
2017-08-05T01:56:13.139Z,1009.7
2017-08-05T01:57:23.068Z,1009.64
2017-08-05T01:58:33.283Z,1009.7
2017-08-05T01:59:43.219Z,1009.74
2017-08-05T02:00:52.851Z,1009.76
2017-08-05T02:02:01.865Z,1009.78
2017-08-05T02:03:11.792Z,1009.76
2017-08-05T02:04:21.713Z,1009.71
2017-08-05T02:05:31.667Z,1009.66
2017-08-05T02:06:41.296Z,1009.66
2017-08-05T02:07:50.906Z,1009.65
2017-08-05T02:09:00.822Z,1009.74
2017-08-05T02:10:10.146Z,1009.73
2017-08-05T02:11:20.402Z,1009.71
2017-08-05T02:12:30.630Z,1009.69
2017-08-05T02:13:40.848Z,1009.69
2017-08-05T02:14:50.773Z,1009.71
2017-08-05T02:16:01.005Z,1009.66
2017-08-05T02:17:11.261Z,1009.67
2017-08-05T02:18:21.200Z,1009.67
2017-08-05T02:19:31.122Z,1009.66
2017-08-05T02:20:41.046Z,1009.69
2017-08-05T02:21:50.964Z,1009.72
2017-08-05T02:23:01.180Z,1009.73
2017-08-05T02:24:10.492Z,1009.73
2017-08-05T02:25:20.436Z,1009.73
2017-08-05T02:26:30.666Z,1009.68
2017-08-05T02:27:40.587Z,1009.67
2017-08-05T02:28:50.511Z,1009.68
2017-08-05T02:30:00.439Z,1009.7
2017-08-05T02:31:10.676Z,1009.68
2017-08-05T02:32:19.993Z,1009.73
2017-08-05T02:33:29.293Z,1009.75
2017-08-05T02:34:39.518Z,1009.74
2017-08-05T02:35:49.743Z,1009.72
2017-08-05T02:36:59.670Z,1009.71
2017-08-05T02:38:09.577Z,1009.68
2017-08-05T02:39:19.799Z,1009.67
2017-08-05T02:40:29.407Z,1009.63
2017-08-05T02:41:38.718Z,1009.54
2017-08-05T02:42:48.933Z,1009.54
2017-08-05T02:43:58.860Z,1009.49
2017-08-05T02:45:08.469Z,1009.5
2017-08-05T02:46:18.388Z,1009.5
2017-08-05T02:47:28.310Z,1009.43
2017-08-05T02:48:38.234Z,1009.48
2017-08-05T02:49:48.152Z,1009.54
2017-08-05T02:50:58.065Z,1009.51
2017-08-05T02:52:07.974Z,1009.55
2017-08-05T02:53:17.587Z,1009.54
2017-08-05T02:54:26.902Z,1009.52
2017-08-05T02:55:36.509Z,1009.46
2017-08-05T02:56:46.145Z,1009.47
2017-08-05T02:57:56.370Z,1009.48
2017-08-05T02:59:06.601Z,1009.46
2017-08-05T03:00:15.935Z,1009.47
2017-08-05T03:01:25.598Z,1009.46
2017-08-05T03:02:35.514Z,1009.41
2017-08-05T03:03:45.126Z,1009.45
2017-08-05T03:04:55.058Z,1009.43
2017-08-05T03:06:04.680Z,1009.4
2017-08-05T03:07:14.604Z,1009.37
2017-08-05T03:08:24.208Z,1009.41
2017-08-05T03:09:34.132Z,1009.37
2017-08-05T03:10:43.750Z,1009.35
2017-08-05T03:11:53.052Z,1009.35
2017-08-05T03:13:03.278Z,1009.32
2017-08-05T03:14:12.896Z,1009.3
2017-08-05T03:15:23.127Z,1009.28
2017-08-05T03:16:32.746Z,1009.25
2017-08-05T03:17:42.346Z,1009.26
2017-08-05T03:18:52.565Z,1009.31
2017-08-05T03:20:02.780Z,1009.34
2017-08-05T03:21:12.704Z,1009.36
2017-08-05T03:22:22.637Z,1009.29
2017-08-05T03:23:32.870Z,1009.28
2017-08-05T03:24:43.097Z,1009.24
2017-08-05T03:25:53.311Z,1009.27
2017-08-05T03:27:03.556Z,1009.25
2017-08-05T03:28:13.786Z,1009.25
2017-08-05T03:29:24.022Z,1009.26
2017-08-05T03:30:33.939Z,1009.25
2017-08-05T03:31:43.248Z,1009.21
2017-08-05T03:32:52.860Z,1009.22
2017-08-05T03:34:02.784Z,1009.24
2017-08-05T03:35:12.400Z,1009.19
2017-08-05T03:36:22.341Z,1009.21
2017-08-05T03:37:31.342Z,1009.21
2017-08-05T03:38:41.591Z,1009.24
2017-08-05T03:39:51.515Z,1009.24
2017-08-05T03:41:01.440Z,1009.19
2017-08-05T03:42:11.040Z,1009.18
2017-08-05T03:43:20.952Z,1009.15
2017-08-05T03:44:30.905Z,1009.11
2017-08-05T03:45:40.868Z,1009.12
2017-08-05T03:46:50.789Z,1009.11
2017-08-05T03:48:01.022Z,1009.1
2017-08-05T03:49:10.634Z,1009.11
2017-08-05T03:50:20.250Z,1009.12
2017-08-05T03:51:29.898Z,1009.11
2017-08-05T03:52:40.142Z,1009.11
2017-08-05T03:53:49.753Z,1009.04
2017-08-05T03:54:59.673Z,1009.04
2017-08-05T03:56:09.595Z,1009.11
2017-08-05T03:57:19.518Z,1009.18
2017-08-05T03:58:29.772Z,1009.24
2017-08-05T03:59:39.719Z,1009.19
2017-08-05T04:00:49.026Z,1009.23
2017-08-05T04:01:58.637Z,1009.26
2017-08-05T04:03:08.547Z,1009.27
2017-08-05T04:04:18.790Z,1009.31
2017-08-05T04:05:29.010Z,1009.37
2017-08-05T04:06:38.932Z,1009.42
2017-08-05T04:07:48.857Z,1009.4
2017-08-05T04:08:58.764Z,1009.45
2017-08-05T04:10:08.994Z,1009.44
2017-08-05T04:11:19.219Z,1009.48
2017-08-05T04:12:29.130Z,1009.45
2017-08-05T04:13:39.410Z,1009.45
2017-08-05T04:14:49.045Z,1009.46
2017-08-05T04:15:58.677Z,1009.43
2017-08-05T04:17:07.706Z,1009.44
2017-08-05T04:18:17.923Z,1009.37
2017-08-05T04:19:27.534Z,1009.35
2017-08-05T04:20:37.785Z,1009.35
2017-08-05T04:21:47.707Z,1009.33
2017-08-05T04:22:57.340Z,1009.34
2017-08-05T04:24:06.956Z,1009.32
2017-08-05T04:25:16.565Z,1009.24
2017-08-05T04:26:26.796Z,1009.24
2017-08-05T04:27:37.395Z,1009.17
2017-08-05T04:28:47.329Z,1009.19
2017-08-05T04:29:56.943Z,1009.12
2017-08-05T04:31:07.181Z,1009.09
2017-08-05T04:32:17.109Z,1008.98
2017-08-05T04:33:26.726Z,1008.94
2017-08-05T04:34:36.643Z,1008.88
2017-08-05T04:35:46.583Z,1008.83
2017-08-05T04:36:55.597Z,1008.82
2017-08-05T04:38:05.836Z,1008.8
2017-08-05T04:39:15.765Z,1008.8
2017-08-05T04:40:25.692Z,1008.79
2017-08-05T04:41:35.911Z,1008.78
2017-08-05T04:42:45.851Z,1008.77
2017-08-05T04:43:55.790Z,1008.77
2017-08-05T04:45:05.415Z,1008.75
2017-08-05T04:46:15.654Z,1008.77
2017-08-05T04:47:25.287Z,1008.77
2017-08-05T04:48:35.513Z,1008.77
2017-08-05T04:49:45.804Z,1008.74
2017-08-05T04:50:56.040Z,1008.73
2017-08-05T04:52:06.271Z,1008.73
2017-08-05T04:53:15.894Z,1008.81
2017-08-05T04:54:25.506Z,1008.8
2017-08-05T04:55:35.424Z,1008.81
2017-08-05T04:56:45.380Z,1008.8
2017-08-05T04:57:55.619Z,1008.73
2017-08-05T04:59:05.250Z,1008.72
2017-08-05T05:00:15.184Z,1008.66
2017-08-05T05:01:25.434Z,1008.69
2017-08-05T05:02:35.370Z,1008.69
2017-08-05T05:03:45.598Z,1008.65
2017-08-05T05:04:55.521Z,1008.61
2017-08-05T05:06:05.157Z,1008.58
2017-08-05T05:07:15.075Z,1008.55
2017-08-05T05:08:24.996Z,1008.55
2017-08-05T05:09:34.610Z,1008.56
2017-08-05T05:10:44.538Z,1008.49
2017-08-05T05:11:54.780Z,1008.48
2017-08-05T05:13:05.081Z,1008.48
2017-08-05T05:14:15.315Z,1008.54
2017-08-05T05:15:25.260Z,1008.55
2017-08-05T05:16:35.488Z,1008.62
2017-08-05T05:17:45.424Z,1008.61
2017-08-05T05:18:55.050Z,1008.62
2017-08-05T05:20:05.289Z,1008.63
2017-08-05T05:21:15.227Z,1008.61
2017-08-05T05:22:25.147Z,1008.63
2017-08-05T05:23:35.392Z,1008.6
2017-08-05T05:24:45.345Z,1008.53
2017-08-05T05:25:55.559Z,1008.49
2017-08-05T05:27:05.197Z,1008.49
2017-08-05T05:28:15.167Z,1008.43
2017-08-05T05:29:25.154Z,1008.39
2017-08-05T05:30:35.411Z,1008.39
2017-08-05T05:31:45.373Z,1008.41
2017-08-05T05:32:55.312Z,1008.45
2017-08-05T05:34:05.248Z,1008.41
2017-08-05T05:35:14.925Z,1008.5
2017-08-05T05:36:24.836Z,1008.55
2017-08-05T05:37:34.778Z,1008.54
2017-08-05T05:38:43.766Z,1008.53
2017-08-05T05:39:53.688Z,1008.52
2017-08-05T05:41:03.913Z,1008.6
2017-08-05T05:42:14.137Z,1008.62
2017-08-05T05:43:24.427Z,1008.61
2017-08-05T05:44:34.657Z,1008.64
2017-08-05T05:45:44.273Z,1008.65
2017-08-05T05:46:53.888Z,1008.68
2017-08-05T05:48:03.817Z,1008.62
2017-08-05T05:49:14.039Z,1008.62
2017-08-05T05:52:56.323Z,1008.67
2017-08-05T05:54:06.583Z,1008.73
2017-08-05T05:55:16.850Z,1008.72
2017-08-05T05:56:26.769Z,1008.68
2017-08-05T05:57:36.684Z,1008.71
2017-08-05T06:01:18.651Z,1008.74
2017-08-05T06:02:28.900Z,1008.69
2017-08-05T06:03:38.811Z,1008.62
2017-08-05T06:04:48.414Z,1008.65
2017-08-05T06:05:58.347Z,1008.66
2017-08-05T06:07:08.263Z,1008.64
2017-08-05T06:08:17.910Z,1008.67
2017-08-05T06:09:27.819Z,1008.65
2017-08-05T06:10:37.758Z,1008.63
2017-08-05T06:11:48.012Z,1008.62
2017-08-05T06:12:58.255Z,1008.63
2017-08-05T06:16:41.092Z,1008.59
2017-08-05T06:20:23.541Z,1008.41
2017-08-05T06:27:49.613Z,1008.53
2017-08-05T06:28:59.231Z,1008.51
2017-08-05T06:30:09.145Z,1008.43
2017-08-05T06:31:19.061Z,1008.37
2017-08-05T06:32:28.993Z,1008.29
2017-08-05T06:33:39.219Z,1008.29
2017-08-05T06:34:49.127Z,1008.23
2017-08-05T06:35:59.042Z,1008.23
2017-08-05T06:37:08.356Z,1008.17
2017-08-05T06:38:18.289Z,1008.15
2017-08-05T06:39:28.206Z,1008.1
2017-08-05T06:40:37.833Z,1008.12
2017-08-05T06:41:48.070Z,1008.12
2017-08-05T06:42:57.697Z,1008.12
2017-08-05T06:44:07.943Z,1008.13
2017-08-05T06:45:17.561Z,1008.16
2017-08-05T06:46:27.805Z,1008.18
2017-08-05T06:47:38.047Z,1008.15
2017-08-05T06:48:48.304Z,1008.17
2017-08-05T06:49:58.257Z,1008.26
2017-08-05T06:51:08.317Z,1008.29
2017-08-05T06:52:17.628Z,1008.37
2017-08-05T06:53:27.867Z,1008.43
2017-08-05T06:54:37.785Z,1008.48
2017-08-05T06:55:48.019Z,1008.46
2017-08-05T06:56:57.945Z,1008.5
2017-08-05T06:58:07.874Z,1008.44
2017-08-05T06:59:17.509Z,1008.38
2017-08-05T07:00:27.738Z,1008.41
2017-08-05T07:01:37.342Z,1008.42
2017-08-05T07:02:47.572Z,1008.43
2017-08-05T07:03:57.841Z,1008.41
2017-08-05T07:05:07.768Z,1008.44
2017-08-05T07:06:18.001Z,1008.43
2017-08-05T07:07:27.969Z,1008.43
2017-08-05T07:08:38.009Z,1008.45
2017-08-05T07:09:47.928Z,1008.48
2017-08-05T07:10:58.156Z,1008.5
2017-08-05T07:12:08.407Z,1008.48
2017-08-05T07:13:18.646Z,1008.45
2017-08-05T07:14:28.571Z,1008.45
2017-08-05T07:15:38.948Z,1008.49
2017-08-05T07:16:48.883Z,1008.51
2017-08-05T07:17:59.535Z,1008.51
2017-08-05T07:19:10.191Z,1008.53
2017-08-05T07:20:19.989Z,1008.54
2017-08-05T07:21:30.541Z,1008.47
2017-08-05T07:22:40.192Z,1008.47
2017-08-05T07:23:50.579Z,1008.59
2017-08-05T07:25:01.670Z,1008.63
2017-08-05T07:26:12.081Z,1008.57
2017-08-05T07:27:22.943Z,1008.57
2017-08-05T07:28:33.184Z,1008.59
2017-08-05T07:29:43.526Z,1008.63
2017-08-05T07:30:53.738Z,1008.67
2017-08-05T07:32:03.368Z,1008.69
2017-08-05T07:33:13.587Z,1008.68
2017-08-05T07:34:23.449Z,1008.67
2017-08-05T07:35:33.058Z,1008.71
2017-08-05T07:36:43.294Z,1008.63
2017-08-05T07:37:53.226Z,1008.61
2017-08-05T07:39:03.213Z,1008.59
2017-08-05T07:40:13.164Z,1008.65
2017-08-05T07:41:23.426Z,1008.6
2017-08-05T07:42:33.347Z,1008.64
2017-08-05T07:43:43.262Z,1008.61
2017-08-05T07:44:53.486Z,1008.54
2017-08-05T07:46:03.711Z,1008.55
2017-08-05T07:47:13.325Z,1008.55
2017-08-05T07:48:23.239Z,1008.57
2017-08-05T07:49:33.459Z,1008.63
2017-08-05T07:50:42.763Z,1008.62
2017-08-05T07:51:52.689Z,1008.61
2017-08-05T07:53:02.914Z,1008.55
2017-08-05T07:54:12.536Z,1008.59
2017-08-05T07:55:21.841Z,1008.61
2017-08-05T07:56:32.073Z,1008.67
2017-08-05T07:57:42.299Z,1008.71
2017-08-05T07:58:52.515Z,1008.72
2017-08-05T08:00:02.437Z,1008.67
2017-08-05T08:01:12.359Z,1008.69
2017-08-05T08:02:22.309Z,1008.71
2017-08-05T08:03:32.561Z,1008.76
2017-08-05T08:04:42.484Z,1008.75
2017-08-05T08:05:52.405Z,1008.71
2017-08-05T08:07:02.338Z,1008.69
2017-08-05T08:08:12.255Z,1008.73
2017-08-05T08:09:22.502Z,1008.72
2017-08-05T08:10:31.808Z,1008.72
2017-08-05T08:11:41.724Z,1008.73
2017-08-05T08:12:51.675Z,1008.72
2017-08-05T08:14:01.904Z,1008.74
2017-08-05T08:15:11.840Z,1008.74
2017-08-05T08:16:21.755Z,1008.68
2017-08-05T08:17:31.682Z,1008.71
2017-08-05T08:18:41.927Z,1008.74
2017-08-05T08:19:51.872Z,1008.67
2017-08-05T08:21:01.179Z,1008.67
2017-08-05T08:22:11.126Z,1008.64
2017-08-05T08:23:21.369Z,1008.69
2017-08-05T08:24:31.295Z,1008.64
2017-08-05T08:25:41.219Z,1008.65
2017-08-05T08:26:51.431Z,1008.62
2017-08-05T08:28:01.658Z,1008.64
2017-08-05T08:29:11.885Z,1008.61
2017-08-05T08:30:21.791Z,1008.66
2017-08-05T08:31:31.701Z,1008.65
2017-08-05T08:32:41.324Z,1008.72
2017-08-05T08:33:51.241Z,1008.75
2017-08-05T08:35:00.851Z,1008.77
2017-08-05T08:36:10.767Z,1008.81
2017-08-05T08:37:20.080Z,1008.79
2017-08-05T08:38:30.009Z,1008.79
2017-08-05T08:39:40.242Z,1008.8
2017-08-05T08:40:50.180Z,1008.89
2017-08-05T08:42:00.432Z,1008.91
2017-08-05T08:43:10.365Z,1008.85
2017-08-05T08:44:19.981Z,1008.86
2017-08-05T08:45:29.960Z,1008.91
2017-08-05T08:46:39.909Z,1008.94
2017-08-05T08:47:49.819Z,1008.94
2017-08-05T08:48:59.424Z,1008.99
2017-08-05T08:50:09.658Z,1008.99
2017-08-05T08:51:19.887Z,1009.02
2017-08-05T08:52:29.838Z,1008.99
2017-08-05T08:53:39.449Z,1009
2017-08-05T08:54:49.068Z,1008.99
2017-08-05T08:55:58.991Z,1009
2017-08-05T08:57:08.339Z,1009.02
2017-08-05T08:58:17.989Z,1009.01
2017-08-05T08:59:27.611Z,1009.02
2017-08-05T09:00:37.548Z,1008.99
2017-08-05T09:01:47.809Z,1009.02
2017-08-05T09:02:58.086Z,1009.07
2017-08-05T09:04:08.005Z,1009.12
2017-08-05T09:05:17.623Z,1009.14
2017-08-05T09:06:27.561Z,1009.14
2017-08-05T09:07:37.167Z,1009.2
2017-08-05T09:08:47.089Z,1009.21
2017-08-05T09:09:56.703Z,1009.2
2017-08-05T09:11:06.007Z,1009.18
2017-08-05T09:12:15.622Z,1009.2
2017-08-05T09:13:25.536Z,1009.2
2017-08-05T09:14:35.457Z,1009.21
2017-08-05T09:15:45.707Z,1009.2
2017-08-05T09:16:55.633Z,1009.19
2017-08-05T09:18:05.068Z,1009.2
2017-08-05T09:19:15.284Z,1009.22
2017-08-05T09:20:25.200Z,1009.19
2017-08-05T09:21:35.430Z,1009.2
2017-08-05T09:22:45.654Z,1009.23
2017-08-05T09:23:55.278Z,1009.26
2017-08-05T09:25:05.505Z,1009.29
2017-08-05T09:26:15.439Z,1009.32
2017-08-05T09:27:25.348Z,1009.32
2017-08-05T09:28:35.277Z,1009.35
2017-08-05T09:29:45.521Z,1009.35
2017-08-05T09:30:55.785Z,1009.34
2017-08-05T09:32:06.019Z,1009.32
2017-08-05T09:33:15.949Z,1009.33
2017-08-05T09:34:25.861Z,1009.33
2017-08-05T09:35:35.787Z,1009.35
2017-08-05T09:36:45.703Z,1009.35
2017-08-05T09:37:55.623Z,1009.4
2017-08-05T09:39:04.934Z,1009.4
2017-08-05T09:40:15.159Z,1009.36
2017-08-05T09:41:25.399Z,1009.43
2017-08-05T09:42:35.626Z,1009.48
2017-08-05T09:43:45.542Z,1009.5
2017-08-05T09:44:55.777Z,1009.55
2017-08-05T09:46:05.410Z,1009.6
2017-08-05T09:47:15.326Z,1009.57
2017-08-05T09:48:25.244Z,1009.58
2017-08-05T09:49:35.491Z,1009.59
2017-08-05T09:50:45.740Z,1009.63
2017-08-05T09:51:54.434Z,1009.65
2017-08-05T09:53:04.041Z,1009.65
2017-08-05T09:54:13.958Z,1009.68
2017-08-05T09:55:24.560Z,1009.7
2017-08-05T09:56:34.479Z,1009.7
2017-08-05T09:57:44.399Z,1009.7
2017-08-05T09:58:54.315Z,1009.72
2017-08-05T10:00:04.537Z,1009.73
2017-08-05T10:01:14.441Z,1009.74
2017-08-05T10:02:24.366Z,1009.79
2017-08-05T10:03:34.282Z,1009.82
2017-08-05T10:04:44.548Z,1009.75
2017-08-05T10:05:54.150Z,1009.83
2017-08-05T10:07:04.384Z,1009.88
2017-08-05T10:08:13.686Z,1009.9
2017-08-05T10:09:23.929Z,1009.91
2017-08-05T10:10:33.855Z,1009.92
2017-08-05T10:11:43.781Z,1009.94
2017-08-05T10:12:53.080Z,1009.95
2017-08-05T10:14:03.035Z,1009.93
2017-08-05T10:15:13.256Z,1009.93
2017-08-05T10:16:23.164Z,1009.97
2017-08-05T10:17:33.101Z,1009.94
2017-08-05T10:18:43.330Z,1009.98
2017-08-05T10:19:53.248Z,1010.01
2017-08-05T10:21:03.468Z,1010.05
2017-08-05T10:22:13.399Z,1010.08
2017-08-05T10:23:23.322Z,1010.08
2017-08-05T10:24:33.560Z,1010.05
2017-08-05T10:25:43.523Z,1010.07
2017-08-05T10:26:52.835Z,1010.05
2017-08-05T10:28:03.059Z,1010.07
2017-08-05T10:29:12.390Z,1010.07
2017-08-05T10:30:22.033Z,1010.08
2017-08-05T10:31:31.966Z,1010.09
2017-08-05T10:32:41.589Z,1010.08
2017-08-05T10:33:51.542Z,1010.08
2017-08-05T10:35:01.475Z,1010.08
2017-08-05T10:36:11.147Z,1010.02
2017-08-05T10:37:21.442Z,1010.03
2017-08-05T10:38:31.703Z,1010.06
2017-08-05T10:39:41.668Z,1010.07
2017-08-05T10:40:51.049Z,1010.09
2017-08-05T10:42:00.863Z,1010.05
2017-08-05T10:43:10.556Z,1010.07
2017-08-05T10:44:20.685Z,1010.07
2017-08-05T10:45:30.550Z,1010.09
2017-08-05T10:46:40.507Z,1010.05
2017-08-05T10:47:50.282Z,1010.07
2017-08-05T10:49:00.207Z,1010.06
2017-08-05T10:50:10.151Z,1010.06
2017-08-05T10:51:19.771Z,1010.03
2017-08-05T10:52:29.722Z,1010.04
2017-08-05T10:53:39.975Z,1010.01
2017-08-05T10:54:49.935Z,1009.99
2017-08-05T10:56:00.020Z,1009.98
2017-08-05T10:57:10.276Z,1010.01
2017-08-05T10:58:20.240Z,1010.06
2017-08-05T10:59:30.496Z,1010.08
2017-08-05T11:00:40.495Z,1010.07
2017-08-05T11:01:50.740Z,1010.11
2017-08-05T11:03:00.985Z,1010.07
2017-08-05T11:04:11.268Z,1010.05
2017-08-05T11:05:21.207Z,1010.02
2017-08-05T11:06:30.864Z,1010.07
2017-08-05T11:07:40.843Z,1010.03
2017-08-05T11:08:50.808Z,1010.04
2017-08-05T11:10:00.755Z,1010.02
2017-08-05T11:11:11.021Z,1010.04
2017-08-05T11:12:20.948Z,1010.01
2017-08-05T11:13:30.904Z,1009.99
2017-08-05T11:14:41.140Z,1010.01
2017-08-05T11:15:50.772Z,1010.02
2017-08-05T11:17:00.441Z,1010.03
2017-08-05T11:18:09.746Z,1010.03
2017-08-05T11:19:19.672Z,1010.04
2017-08-05T11:20:29.894Z,1010.04
2017-08-05T11:21:40.167Z,1010.05
2017-08-05T11:22:50.088Z,1010.06
2017-08-05T11:23:59.715Z,1010.08
2017-08-05T11:25:09.375Z,1010.1
2017-08-05T11:26:19.620Z,1010.1
2017-08-05T11:27:29.569Z,1010.09
2017-08-05T11:28:39.195Z,1010.12
2017-08-05T11:29:48.896Z,1010.13
2017-08-05T11:30:58.839Z,1010.11
2017-08-05T11:32:09.102Z,1010.15
2017-08-05T11:33:18.725Z,1010.13
2017-08-05T11:34:29.015Z,1010.19
2017-08-05T11:35:38.951Z,1010.2
2017-08-05T11:36:48.873Z,1010.21
2017-08-05T11:37:59.107Z,1010.2
2017-08-05T11:39:08.820Z,1010.24
2017-08-05T11:40:18.748Z,1010.22
2017-08-05T11:41:28.411Z,1010.25
2017-08-05T11:42:38.684Z,1010.23
2017-08-05T11:43:48.648Z,1010.25
2017-08-05T11:44:58.919Z,1010.22
2017-08-05T11:46:09.210Z,1010.23
2017-08-05T11:47:19.197Z,1010.28
2017-08-05T11:48:29.468Z,1010.26
2017-08-05T11:49:39.404Z,1010.31
2017-08-05T11:50:49.035Z,1010.29
2017-08-05T11:51:59.273Z,1010.33
2017-08-05T11:53:09.522Z,1010.33
2017-08-05T11:54:19.580Z,1010.4
2017-08-05T11:55:29.543Z,1010.42
2017-08-05T11:56:39.471Z,1010.44
2017-08-05T11:57:49.168Z,1010.46
2017-08-05T11:58:59.114Z,1010.44
2017-08-05T12:00:09.039Z,1010.45
2017-08-05T12:01:18.673Z,1010.48
2017-08-05T12:02:28.609Z,1010.45
2017-08-05T12:03:38.241Z,1010.48
2017-08-05T12:04:47.882Z,1010.49
2017-08-05T12:05:57.529Z,1010.49
2017-08-05T12:07:07.782Z,1010.49
2017-08-05T12:08:17.458Z,1010.52
2017-08-05T12:09:27.429Z,1010.5
2017-08-05T12:10:37.740Z,1010.52
2017-08-05T12:11:48.766Z,1010.49
2017-08-05T12:12:58.734Z,1010.55
2017-08-05T12:14:08.988Z,1010.52
2017-08-05T12:15:19.216Z,1010.54
2017-08-05T12:16:29.183Z,1010.49
2017-08-05T12:17:39.116Z,1010.56
2017-08-05T12:18:48.750Z,1010.54
2017-08-05T12:19:58.994Z,1010.59
2017-08-05T12:21:09.026Z,1010.66
2017-08-05T12:22:19.318Z,1010.68
2017-08-05T12:23:28.922Z,1010.69
2017-08-05T12:24:38.888Z,1010.64
2017-08-05T12:25:48.814Z,1010.65
2017-08-05T12:26:58.735Z,1010.65
2017-08-05T12:28:09.042Z,1010.68
2017-08-05T12:29:19.258Z,1010.66
2017-08-05T12:30:28.897Z,1010.64
2017-08-05T12:31:38.509Z,1010.63
2017-08-05T12:32:48.432Z,1010.61
2017-08-05T12:33:58.070Z,1010.66
2017-08-05T12:35:07.985Z,1010.56
2017-08-05T12:36:18.223Z,1010.55
2017-08-05T12:37:28.448Z,1010.57
2017-08-05T12:38:38.095Z,1010.59
2017-08-05T12:39:48.034Z,1010.56
2017-08-05T12:40:57.943Z,1010.58
2017-08-05T12:42:08.165Z,1010.6
2017-08-05T12:43:18.084Z,1010.59
2017-08-05T12:44:28.022Z,1010.56
2017-08-05T12:45:37.942Z,1010.58
2017-08-05T12:46:47.560Z,1010.55
2017-08-05T12:47:57.805Z,1010.58
2017-08-05T12:49:08.039Z,1010.62
2017-08-05T12:50:17.672Z,1010.59
2017-08-05T12:51:27.909Z,1010.59
2017-08-05T12:52:37.825Z,1010.63
2017-08-05T12:53:47.745Z,1010.62
2017-08-05T12:54:57.990Z,1010.65
2017-08-05T12:56:07.903Z,1010.66
2017-08-05T12:57:17.831Z,1010.68
2017-08-05T12:58:27.464Z,1010.67
2017-08-05T12:59:37.693Z,1010.68
2017-08-05T13:00:47.615Z,1010.72
2017-08-05T13:01:57.528Z,1010.69
2017-08-05T13:03:07.460Z,1010.63
2017-08-05T13:04:17.681Z,1010.71
2017-08-05T13:05:27.913Z,1010.67
2017-08-05T13:06:37.824Z,1010.67
2017-08-05T13:07:47.469Z,1010.74
2017-08-05T13:08:56.771Z,1010.72
2017-08-05T13:10:06.998Z,1010.74
2017-08-05T13:11:16.611Z,1010.76
2017-08-05T13:12:25.313Z,1010.75
2017-08-05T13:13:34.632Z,1010.76
2017-08-05T13:14:44.855Z,1010.76
2017-08-05T13:15:54.773Z,1010.77
2017-08-05T13:17:05.042Z,1010.75
2017-08-05T13:18:14.677Z,1010.78
2017-08-05T13:19:24.605Z,1010.81
2017-08-05T13:20:34.235Z,1010.75
2017-08-05T13:21:44.470Z,1010.75
2017-08-05T13:22:54.085Z,1010.72
2017-08-05T13:24:03.997Z,1010.7
2017-08-05T13:25:13.651Z,1010.72
2017-08-05T13:26:23.571Z,1010.69
2017-08-05T13:27:33.803Z,1010.69
2017-08-05T13:28:43.701Z,1010.69
2017-08-05T13:29:53.646Z,1010.69
2017-08-05T13:31:03.902Z,1010.76
2017-08-05T13:32:13.857Z,1010.71
2017-08-05T13:33:23.486Z,1010.7
2017-08-05T13:34:33.420Z,1010.76
2017-08-05T13:35:43.378Z,1010.72
2017-08-05T13:36:53.311Z,1010.72
2017-08-05T13:38:03.543Z,1010.72
2017-08-05T13:39:13.160Z,1010.73
2017-08-05T13:40:22.480Z,1010.72
2017-08-05T13:41:32.729Z,1010.77
2017-08-05T13:42:41.745Z,1010.76
2017-08-05T13:43:51.664Z,1010.8
2017-08-05T13:45:01.599Z,1010.8
2017-08-05T13:46:11.845Z,1010.83
2017-08-05T13:47:21.157Z,1010.86
2017-08-05T13:48:31.083Z,1010.86
2017-08-05T13:49:41.004Z,1010.84
2017-08-05T13:50:51.239Z,1010.85
2017-08-05T13:52:00.874Z,1010.87
2017-08-05T13:53:11.108Z,1010.87
2017-08-05T13:54:21.352Z,1010.88
2017-08-05T13:55:31.280Z,1010.9
2017-08-05T13:56:41.191Z,1010.85
2017-08-05T13:57:51.144Z,1010.86
2017-08-05T13:59:01.063Z,1010.86
2017-08-05T14:00:11.308Z,1010.89
2017-08-05T14:01:21.255Z,1010.91
2017-08-05T14:02:30.889Z,1010.91
2017-08-05T14:03:41.122Z,1010.95
2017-08-05T14:04:50.747Z,1010.93
2017-08-05T14:06:00.668Z,1010.94
2017-08-05T14:07:09.701Z,1010.92
2017-08-05T14:08:19.607Z,1010.89
2017-08-05T14:09:29.874Z,1010.9
2017-08-05T14:10:39.488Z,1010.93
2017-08-05T14:11:49.403Z,1010.92
2017-08-05T14:12:59.653Z,1010.99
2017-08-05T14:14:09.257Z,1010.93
2017-08-05T14:15:19.211Z,1010.9
2017-08-05T14:16:29.444Z,1010.88
2017-08-05T14:17:39.676Z,1010.87
2017-08-05T14:18:49.915Z,1010.87
2017-08-05T14:19:59.518Z,1010.88
2017-08-05T14:21:09.141Z,1010.87
2017-08-05T14:22:19.080Z,1010.82
2017-08-05T14:23:29.009Z,1010.8
2017-08-05T14:24:38.634Z,1010.84
2017-08-05T14:25:48.890Z,1010.8